createdAt,value
2022-12-09T00:02:18.399Z,93930.09
2022-12-09T00:04:45.344Z,93918.22
2022-12-09T00:07:12.458Z,93910.31
2022-12-09T00:09:39.318Z,93906.00
2022-12-09T00:12:06.303Z,93900.72
2022-12-09T00:14:33.213Z,93903.22
2022-12-09T00:17:00.309Z,93895.50
2022-12-09T00:19:27.243Z,93889.50
2022-12-09T00:21:54.221Z,93877.00
2022-12-09T00:24:21.345Z,93873.38
2022-12-09T00:26:48.007Z,93874.00
2022-12-09T00:29:14.889Z,93869.69
2022-12-09T00:31:41.824Z,93865.97
2022-12-09T00:34:12.552Z,93867.28
2022-12-09T00:36:40.484Z,93863.66
2022-12-09T00:39:07.308Z,93860.84
2022-12-09T00:41:34.025Z,93857.13
2022-12-09T00:44:00.640Z,93853.50
2022-12-09T00:46:27.715Z,93857.84
2022-12-09T00:48:54.455Z,93847.72
2022-12-09T00:51:23.832Z,93844.69
2022-12-09T00:53:52.257Z,93845.84
2022-12-09T00:56:19.000Z,93840.72
2022-12-09T00:58:45.850Z,93838.72
2022-12-09T01:01:12.717Z,93836.81
2022-12-09T01:03:40.045Z,93836.16
2022-12-09T01:06:18.085Z,93826.84
2022-12-09T01:08:45.945Z,93836.41
2022-12-09T01:11:18.893Z,93828.69
2022-12-09T01:13:46.198Z,93832.03
2022-12-09T01:16:15.768Z,93828.00
2022-12-09T01:18:42.805Z,93833.06
2022-12-09T01:21:09.805Z,93836.84
2022-12-09T01:23:36.575Z,93838.91
2022-12-09T01:26:05.583Z,93832.81
2022-12-09T01:28:34.743Z,93833.91
2022-12-09T01:31:06.673Z,93828.81
2022-12-09T01:33:33.635Z,93828.38
2022-12-09T01:36:00.581Z,93827.16
2022-12-09T01:38:27.264Z,93825.13
2022-12-09T01:40:53.908Z,93820.84
2022-12-09T01:43:21.471Z,93822.50
2022-12-09T01:45:48.189Z,93815.97
2022-12-09T01:48:19.513Z,93814.09
2022-12-09T01:50:52.227Z,93804.25
2022-12-09T01:53:24.524Z,93803.41
2022-12-09T01:55:51.714Z,93798.47
2022-12-09T01:58:19.840Z,93798.81
2022-12-09T02:00:50.395Z,93793.34
2022-12-09T02:03:17.243Z,93779.13
2022-12-09T02:05:45.024Z,93780.06
2022-12-09T02:08:13.767Z,93773.06
2022-12-09T02:10:57.338Z,93765.19
2022-12-09T02:13:43.162Z,93755.38
2022-12-09T02:16:17.860Z,93770.16
2022-12-09T02:19:12.027Z,93763.72
2022-12-09T02:21:49.613Z,93758.31
2022-12-09T02:24:31.677Z,93751.69
2022-12-09T02:27:20.228Z,93756.13
2022-12-09T02:30:08.597Z,93745.31
2022-12-09T02:32:46.158Z,93734.59
2022-12-09T02:35:42.781Z,93744.50
2022-12-09T02:38:16.874Z,93735.50
2022-12-09T02:40:53.823Z,93732.78
2022-12-09T02:43:26.313Z,93728.53
2022-12-09T02:45:56.700Z,93724.56
2022-12-09T02:48:32.089Z,93722.06
2022-12-09T02:51:03.741Z,93719.44
2022-12-09T02:53:31.713Z,93710.19
2022-12-09T02:55:59.095Z,93706.00
2022-12-09T02:58:26.065Z,93702.31
2022-12-09T03:00:56.700Z,93708.38
2022-12-09T03:03:24.510Z,93698.25
2022-12-09T03:06:14.474Z,93695.03
2022-12-09T03:09:02.671Z,93690.44
2022-12-09T03:11:32.798Z,93687.38
2022-12-09T03:14:02.377Z,93685.31
2022-12-09T03:17:05.458Z,93677.00
2022-12-09T03:19:40.992Z,93672.69
2022-12-09T03:22:14.245Z,93668.47
2022-12-09T03:24:55.691Z,93667.59
2022-12-09T03:27:28.049Z,93660.72
2022-12-09T03:29:57.952Z,93672.81
2022-12-09T03:32:28.322Z,93668.25
2022-12-09T03:35:08.429Z,93666.41
2022-12-09T03:37:40.066Z,93665.47
2022-12-09T03:40:14.336Z,93659.19
2022-12-09T03:43:20.391Z,93661.84
2022-12-09T03:45:48.018Z,93663.66
2022-12-09T03:48:16.046Z,93658.06
2022-12-09T03:50:54.316Z,93654.34
2022-12-09T03:53:45.555Z,93653.31
2022-12-09T03:56:25.968Z,93642.50
2022-12-09T03:58:55.975Z,93648.53
2022-12-09T04:01:29.046Z,93644.09
2022-12-09T04:03:57.311Z,93640.44
2022-12-09T04:06:24.813Z,93632.47
2022-12-09T04:08:51.478Z,93633.88
2022-12-09T04:11:18.444Z,93639.09
2022-12-09T04:14:07.099Z,93629.06
2022-12-09T04:16:50.882Z,93629.31
2022-12-09T04:19:31.466Z,93631.56
2022-12-09T04:22:18.177Z,93632.56
2022-12-09T04:24:44.827Z,93628.97
2022-12-09T04:27:11.880Z,93627.00
2022-12-09T04:29:38.622Z,93625.06
2022-12-09T04:32:06.111Z,93625.19
2022-12-09T04:34:34.119Z,93622.69
2022-12-09T04:37:03.837Z,93614.81
2022-12-09T04:39:31.381Z,93613.56
2022-12-09T04:41:58.110Z,93612.19
2022-12-09T04:44:24.733Z,93618.03
2022-12-09T04:46:51.413Z,93618.16
2022-12-09T04:49:18.093Z,93614.78
2022-12-09T04:51:45.131Z,93603.78
2022-12-09T04:54:14.843Z,93612.47
2022-12-09T04:56:42.517Z,93603.81
2022-12-09T04:59:09.744Z,93602.41
2022-12-09T05:01:36.542Z,93599.78
2022-12-09T05:04:05.402Z,93599.31
2022-12-09T05:06:32.712Z,93586.81
2022-12-09T05:08:59.689Z,93581.13
2022-12-09T05:11:26.980Z,93593.41
2022-12-09T05:13:54.793Z,93579.72
2022-12-09T05:16:22.457Z,93583.03
2022-12-09T05:18:49.991Z,93576.22
2022-12-09T05:21:20.152Z,93571.19
2022-12-09T05:23:48.047Z,93581.53
2022-12-09T05:26:17.945Z,93578.38
2022-12-09T05:28:45.665Z,93576.44
2022-12-09T05:31:18.556Z,93577.44
2022-12-09T05:33:46.999Z,93583.72
2022-12-09T05:36:17.050Z,93578.38
2022-12-09T05:38:44.394Z,93574.06
2022-12-09T05:41:12.053Z,93571.31
2022-12-09T05:43:38.982Z,93567.44
2022-12-09T05:46:07.177Z,93562.00
2022-12-09T05:48:35.378Z,93558.47
2022-12-09T05:51:16.799Z,93556.63
2022-12-09T05:53:43.825Z,93561.28
2022-12-09T05:56:10.824Z,93555.13
2022-12-09T05:58:38.029Z,93559.69
2022-12-09T06:01:08.062Z,93558.88
2022-12-09T06:03:36.449Z,93554.63
2022-12-09T06:06:13.700Z,93559.75
2022-12-09T06:08:41.923Z,93554.50
2022-12-09T06:11:16.518Z,93550.34
2022-12-09T06:13:44.131Z,93549.44
2022-12-09T06:16:12.383Z,93541.53
2022-12-09T06:18:40.427Z,93542.66
2022-12-09T06:21:09.512Z,93545.34
2022-12-09T06:23:39.077Z,93554.13
2022-12-09T06:26:06.383Z,93542.56
2022-12-09T06:28:34.020Z,93547.59
2022-12-09T06:31:00.985Z,93551.34
2022-12-09T06:33:53.677Z,93545.06
2022-12-09T06:36:14.571Z,93549.19
2022-12-09T06:38:42.201Z,93558.25
2022-12-09T06:41:11.765Z,93552.84
2022-12-09T06:43:39.478Z,93555.94
2022-12-09T06:46:15.425Z,93547.06
2022-12-09T06:48:42.953Z,93538.59
2022-12-09T06:51:10.549Z,93548.72
2022-12-09T06:53:37.889Z,93549.00
2022-12-09T06:56:11.742Z,93547.63
2022-12-09T06:58:42.244Z,93550.94
2022-12-09T07:01:18.648Z,93550.16
2022-12-09T07:03:49.289Z,93550.03
2022-12-09T07:06:40.283Z,93548.41
2022-12-09T07:09:13.281Z,93554.41
2022-12-09T07:11:41.588Z,93553.50
2022-12-09T07:14:10.648Z,93546.56
2022-12-09T07:16:38.318Z,93551.72
2022-12-09T07:19:07.022Z,93559.09
2022-12-09T07:21:34.482Z,93552.22
2022-12-09T07:24:03.098Z,93562.34
2022-12-09T07:26:33.676Z,93555.00
2022-12-09T07:29:05.843Z,93562.69
2022-12-09T07:31:33.673Z,93571.78
2022-12-09T07:34:01.460Z,93570.84
2022-12-09T07:36:30.439Z,93575.25
2022-12-09T07:39:04.042Z,93576.56
2022-12-09T07:41:31.174Z,93583.28
2022-12-09T07:43:58.091Z,93579.84
2022-12-09T07:46:26.853Z,93578.34
2022-12-09T07:48:54.395Z,93586.13
2022-12-09T07:51:21.665Z,93579.72
2022-12-09T07:53:48.772Z,93586.25
2022-12-09T07:56:17.094Z,93582.72
2022-12-09T07:58:46.376Z,93583.50
2022-12-09T08:01:20.279Z,93584.94
2022-12-09T08:03:48.796Z,93591.56
2022-12-09T08:06:19.629Z,93582.78
2022-12-09T08:08:48.370Z,93582.78
2022-12-09T08:11:25.405Z,93584.63
2022-12-09T08:13:53.975Z,93573.91
2022-12-09T08:16:22.837Z,93584.94
2022-12-09T08:18:51.622Z,93582.44
2022-12-09T08:21:31.863Z,93589.28
2022-12-09T08:24:02.363Z,93587.38
2022-12-09T08:26:32.433Z,93578.63
2022-12-09T08:28:59.964Z,93586.69
2022-12-09T08:31:27.951Z,93578.94
2022-12-09T08:33:55.772Z,93573.66
2022-12-09T08:36:28.520Z,93577.66
2022-12-09T08:38:59.481Z,93574.56
2022-12-09T08:41:32.182Z,93578.09
2022-12-09T08:43:59.227Z,93586.41
2022-12-09T08:46:26.367Z,93588.38
2022-12-09T08:48:53.703Z,93588.28
2022-12-09T08:51:20.956Z,93587.34
2022-12-09T08:53:48.141Z,93580.41
2022-12-09T08:56:15.572Z,93577.53
2022-12-09T08:58:43.333Z,93582.88
2022-12-09T09:01:21.829Z,93584.47
2022-12-09T09:03:50.907Z,93587.63
2022-12-09T09:06:19.172Z,93590.72
2022-12-09T09:08:46.123Z,93583.00
2022-12-09T09:11:19.128Z,93584.09
2022-12-09T09:13:49.217Z,93585.44
2022-12-09T09:16:20.207Z,93586.91
2022-12-09T09:18:48.351Z,93582.75
2022-12-09T09:21:19.660Z,93586.16
2022-12-09T09:23:48.055Z,93575.25
2022-12-09T09:26:18.576Z,93579.97
2022-12-09T09:28:45.911Z,93581.03
2022-12-09T09:31:18.407Z,93573.13
2022-12-09T09:33:46.148Z,93577.75
2022-12-09T09:36:16.942Z,93575.22
2022-12-09T09:38:43.975Z,93581.34
2022-12-09T09:41:38.615Z,93572.31
2022-12-09T09:44:25.599Z,93578.94
2022-12-09T09:46:54.550Z,93566.06
2022-12-09T09:49:38.417Z,93565.00
2022-12-09T09:52:13.320Z,93569.56
2022-12-09T09:54:40.109Z,93561.22
2022-12-09T09:57:20.744Z,93567.78
2022-12-09T09:59:53.960Z,93567.84
2022-12-09T10:02:42.780Z,93574.59
2022-12-09T10:05:28.590Z,93571.88
2022-12-09T10:08:15.518Z,93568.69
2022-12-09T10:11:03.850Z,93570.81
2022-12-09T10:13:30.939Z,93564.66
2022-12-09T10:16:19.009Z,93565.28
2022-12-09T10:19:33.645Z,93557.16
2022-12-09T10:22:14.732Z,93556.31
2022-12-09T10:24:51.135Z,93561.22
2022-12-09T10:27:34.907Z,93553.50
2022-12-09T10:30:12.116Z,93556.56
2022-12-09T10:32:40.274Z,93553.28
2022-12-09T10:35:23.802Z,93555.97
2022-12-09T10:37:53.062Z,93545.47
2022-12-09T10:40:22.440Z,93537.22
2022-12-09T10:42:55.588Z,93542.66
2022-12-09T10:45:24.621Z,93533.44
2022-12-09T10:47:55.337Z,93539.06
2022-12-09T10:50:30.850Z,93529.13
2022-12-09T10:53:08.395Z,93533.41
2022-12-09T10:55:40.498Z,93533.56
2022-12-09T10:58:29.024Z,93527.69
2022-12-09T11:01:02.906Z,93532.75
2022-12-09T11:03:47.394Z,93532.59
2022-12-09T11:06:23.248Z,93536.09
2022-12-09T11:08:54.572Z,93533.25
2022-12-09T11:11:45.689Z,93527.91
2022-12-09T11:14:20.409Z,93530.34
2022-12-09T11:16:47.484Z,93535.47
2022-12-09T11:19:15.243Z,93531.97
2022-12-09T11:21:42.289Z,93528.19
2022-12-09T11:24:23.913Z,93533.25
2022-12-09T11:26:50.995Z,93532.44
2022-12-09T11:29:19.392Z,93528.22
2022-12-09T11:31:47.382Z,93526.19
2022-12-09T11:34:21.827Z,93519.28
2022-12-09T11:36:55.589Z,93524.34
2022-12-09T11:39:34.711Z,93518.84
2022-12-09T11:42:20.684Z,93517.34
2022-12-09T11:45:06.041Z,93519.03
2022-12-09T11:48:24.071Z,93517.41
2022-12-09T11:50:27.258Z,93515.81
2022-12-09T11:53:10.588Z,93515.03
2022-12-09T11:55:46.041Z,93519.44
2022-12-09T11:58:34.954Z,93511.16
2022-12-09T12:01:04.141Z,93507.16
2022-12-09T12:03:39.671Z,93510.00
2022-12-09T12:06:20.372Z,93514.38
2022-12-09T12:09:02.694Z,93515.91
2022-12-09T12:11:39.320Z,93517.78
2022-12-09T12:14:24.965Z,93510.59
2022-12-09T12:17:09.773Z,93507.81
2022-12-09T12:19:41.833Z,93506.94
2022-12-09T12:22:29.669Z,93507.31
2022-12-09T12:25:29.856Z,93508.91
2022-12-09T12:28:17.630Z,93506.06
2022-12-09T12:31:27.461Z,93510.97
2022-12-09T12:34:27.226Z,93512.66
2022-12-09T12:37:15.657Z,93510.47
2022-12-09T12:39:59.605Z,93507.94
2022-12-09T12:42:38.151Z,93510.34
2022-12-09T12:45:24.020Z,93512.66
2022-12-09T12:47:57.988Z,93512.41
2022-12-09T12:50:35.425Z,93512.97
2022-12-09T12:53:10.971Z,93509.47
2022-12-09T12:55:56.006Z,93518.84
2022-12-09T12:58:44.707Z,93518.56
2022-12-09T13:01:17.512Z,93514.94
2022-12-09T13:04:02.208Z,93521.44
2022-12-09T13:06:36.298Z,93522.59
2022-12-09T13:09:11.775Z,93524.09
2022-12-09T13:12:11.922Z,93531.78
2022-12-09T13:14:53.019Z,93531.19
2022-12-09T13:17:25.677Z,93532.88
2022-12-09T13:19:58.533Z,93537.75
2022-12-09T13:22:44.259Z,93534.34
2022-12-09T13:25:20.074Z,93539.06
2022-12-09T13:28:10.771Z,93530.31
2022-12-09T13:30:54.060Z,93530.06
2022-12-09T13:33:58.040Z,93532.53
2022-12-09T13:36:44.520Z,93524.50
2022-12-09T13:39:12.605Z,93527.25
2022-12-09T13:41:43.280Z,93526.06
2022-12-09T13:44:13.794Z,93527.13
2022-12-09T13:46:40.807Z,93532.06
2022-12-09T13:49:27.124Z,93531.69
2022-12-09T13:51:56.020Z,93530.94
2022-12-09T13:54:27.084Z,93530.38
2022-12-09T13:57:33.507Z,93540.88
2022-12-09T14:00:05.882Z,93530.88
2022-12-09T14:02:51.725Z,93526.25
2022-12-09T14:05:23.782Z,93523.34
2022-12-09T14:08:02.771Z,93520.19
2022-12-09T14:10:42.170Z,93532.81
2022-12-09T14:13:23.573Z,93529.38
2022-12-09T14:16:28.025Z,93530.41
2022-12-09T14:18:56.709Z,93532.75
2022-12-09T14:21:32.555Z,93535.63
2022-12-09T14:24:07.904Z,93536.44
2022-12-09T14:26:52.484Z,93538.31
2022-12-09T14:29:46.963Z,93532.97
2022-12-09T14:32:54.025Z,93541.31
2022-12-09T14:35:45.858Z,93545.22
2022-12-09T14:39:08.309Z,93552.56
2022-12-09T14:42:07.832Z,93553.00
2022-12-09T14:45:17.835Z,93554.31
2022-12-09T14:47:47.676Z,93554.53
2022-12-09T14:50:21.272Z,93566.50
2022-12-09T14:52:58.472Z,93569.75
2022-12-09T14:55:28.139Z,93575.13
2022-12-09T14:57:58.041Z,93578.66
2022-12-09T15:00:37.198Z,93576.38
2022-12-09T15:03:34.420Z,93584.50
2022-12-09T15:06:06.155Z,93581.66
2022-12-09T15:08:36.302Z,93585.78
2022-12-09T15:11:29.300Z,93573.34
2022-12-09T15:13:58.893Z,93580.22
2022-12-09T15:16:27.739Z,93576.81
2022-12-09T15:18:55.078Z,93584.63
2022-12-09T15:21:31.605Z,93579.44
2022-12-09T15:24:05.338Z,93580.78
2022-12-09T15:26:34.440Z,93568.47
2022-12-09T15:29:01.654Z,93582.59
2022-12-09T15:31:31.534Z,93573.38
2022-12-09T15:34:21.723Z,93570.28
2022-12-09T15:37:00.379Z,93563.50
2022-12-09T15:39:38.158Z,93571.66
2022-12-09T15:42:10.903Z,93577.47
2022-12-09T15:45:10.710Z,93575.06
2022-12-09T15:47:47.572Z,93574.06
2022-12-09T15:50:26.685Z,93574.50
2022-12-09T15:53:05.623Z,93574.81
2022-12-09T15:55:37.542Z,93568.56
2022-12-09T15:58:10.012Z,93574.31
2022-12-09T16:00:40.721Z,93569.91
2022-12-09T16:03:07.678Z,93573.84
2022-12-09T16:05:41.834Z,93570.28
2022-12-09T16:08:10.252Z,93574.69
2022-12-09T16:10:49.001Z,93566.94
2022-12-09T16:13:17.681Z,93569.72
2022-12-09T16:15:50.932Z,93579.38
2022-12-09T16:18:22.188Z,93572.53
2022-12-09T16:21:29.986Z,93584.59
2022-12-09T16:24:14.936Z,93583.34
2022-12-09T16:26:47.422Z,93585.38
2022-12-09T16:29:32.001Z,93587.13
2022-12-09T16:32:16.949Z,93579.72
2022-12-09T16:34:48.997Z,93585.28
2022-12-09T16:37:39.733Z,93578.81
2022-12-09T16:40:21.485Z,93580.06
2022-12-09T16:42:49.912Z,93574.28
2022-12-09T16:45:19.475Z,93574.47
2022-12-09T16:47:46.370Z,93574.69
2022-12-09T16:50:13.308Z,93573.31
2022-12-09T16:52:40.131Z,93580.63
2022-12-09T16:55:22.563Z,93568.78
2022-12-09T16:57:50.759Z,93577.09
2022-12-09T17:00:18.734Z,93571.28
2022-12-09T17:02:52.368Z,93572.53
2022-12-09T17:05:21.763Z,93570.28
2022-12-09T17:07:48.567Z,93574.31
2022-12-09T17:10:16.583Z,93574.72
2022-12-09T17:12:44.270Z,93569.38
2022-12-09T17:15:18.823Z,93569.56
2022-12-09T17:17:48.809Z,93575.88
2022-12-09T17:20:18.141Z,93577.34
2022-12-09T17:22:47.700Z,93583.59
2022-12-09T17:25:14.387Z,93584.03
2022-12-09T17:27:41.065Z,93592.38
2022-12-09T17:30:08.371Z,93581.69
2022-12-09T17:32:35.062Z,93579.63
2022-12-09T17:35:01.792Z,93576.84
2022-12-09T17:37:28.505Z,93584.09
2022-12-09T17:40:01.692Z,93586.22
2022-12-09T17:42:32.671Z,93582.59
2022-12-09T17:44:59.356Z,93582.47
2022-12-09T17:47:26.157Z,93587.66
2022-12-09T17:49:53.141Z,93588.84
2022-12-09T17:52:19.916Z,93593.38
2022-12-09T17:54:48.037Z,93594.59
2022-12-09T17:57:14.697Z,93591.72
2022-12-09T17:59:41.368Z,93593.56
2022-12-09T18:02:10.707Z,93593.84
2022-12-09T18:04:37.479Z,93601.56
2022-12-09T18:07:04.180Z,93606.94
2022-12-09T18:09:33.270Z,93610.66
2022-12-09T18:11:59.932Z,93607.34
2022-12-09T18:14:26.645Z,93618.72
2022-12-09T18:16:56.024Z,93623.69
2022-12-09T18:19:22.672Z,93626.44
2022-12-09T18:21:49.284Z,93620.63
2022-12-09T18:24:15.931Z,93616.44
2022-12-09T18:26:42.707Z,93624.06
2022-12-09T18:29:10.600Z,93624.13
2022-12-09T18:31:37.612Z,93627.47
2022-12-09T18:34:04.357Z,93629.75
2022-12-09T18:36:30.989Z,93624.47
2022-12-09T18:39:00.044Z,93623.50
2022-12-09T18:41:30.672Z,93623.72
2022-12-09T18:44:00.697Z,93623.13
2022-12-09T18:46:33.909Z,93627.09
2022-12-09T18:49:10.758Z,93622.50
2022-12-09T18:51:38.365Z,93618.22
2022-12-09T18:54:06.781Z,93622.22
2022-12-09T18:56:35.123Z,93625.25
2022-12-09T18:59:07.013Z,93625.91
2022-12-09T19:01:37.688Z,93639.63
2022-12-09T19:04:06.249Z,93635.91
2022-12-09T19:06:36.350Z,93639.13
2022-12-09T19:09:13.357Z,93640.75
2022-12-09T19:11:41.782Z,93643.06
2022-12-09T19:14:09.665Z,93652.97
2022-12-09T19:16:36.820Z,93656.06
2022-12-09T19:19:09.623Z,93650.19
2022-12-09T19:21:37.902Z,93647.31
2022-12-09T19:24:05.004Z,93660.47
2022-12-09T19:26:34.474Z,93665.19
2022-12-09T19:29:05.760Z,93660.16
2022-12-09T19:31:35.678Z,93654.59
2022-12-09T19:34:06.756Z,93655.88
2022-12-09T19:36:33.596Z,93664.97
2022-12-09T19:39:01.346Z,93660.16
2022-12-09T19:41:28.528Z,93664.22
2022-12-09T19:43:57.294Z,93662.78
2022-12-09T19:46:28.070Z,93671.66
2022-12-09T19:48:55.813Z,93670.72
2022-12-09T19:51:27.276Z,93671.84
2022-12-09T19:53:56.345Z,93670.06
2022-12-09T19:56:23.965Z,93671.63
2022-12-09T19:58:51.930Z,93676.13
2022-12-09T20:01:18.601Z,93680.19
2022-12-09T20:03:47.763Z,93675.41
2022-12-09T20:06:20.218Z,93678.75
2022-12-09T20:08:48.545Z,93684.75
2022-12-09T20:11:21.084Z,93682.16
2022-12-09T20:13:48.867Z,93684.63
2022-12-09T20:16:19.096Z,93690.91
2022-12-09T20:18:45.916Z,93693.50
2022-12-09T20:21:13.809Z,93684.28
2022-12-09T20:23:42.052Z,93690.31
2022-12-09T20:26:11.357Z,93687.59
2022-12-09T20:28:39.948Z,93691.22
2022-12-09T20:31:22.347Z,93683.66
2022-12-09T20:33:53.577Z,93680.19
2022-12-09T20:36:23.294Z,93679.44
2022-12-09T20:38:52.888Z,93680.13
2022-12-09T20:41:20.800Z,93681.81
2022-12-09T20:43:49.174Z,93684.22
2022-12-09T20:46:21.906Z,93680.91
2022-12-09T20:48:50.294Z,93677.91
2022-12-09T20:51:29.149Z,93677.09
2022-12-09T20:53:56.780Z,93676.47
2022-12-09T20:56:26.428Z,93674.41
2022-12-09T20:58:54.455Z,93677.91
2022-12-09T21:01:26.961Z,93677.81
2022-12-09T21:03:55.240Z,93674.38
2022-12-09T21:06:24.755Z,93676.13
2022-12-09T21:08:52.541Z,93678.13
2022-12-09T21:11:22.271Z,93686.97
2022-12-09T21:13:52.797Z,93684.34
2022-12-09T21:16:35.552Z,93680.59
2022-12-09T21:19:04.186Z,93684.47
2022-12-09T21:21:34.680Z,93681.22
2022-12-09T21:24:02.757Z,93678.81
2022-12-09T21:26:29.743Z,93685.16
2022-12-09T21:28:59.331Z,93688.28
2022-12-09T21:31:29.494Z,93686.25
2022-12-09T21:33:58.154Z,93685.56
2022-12-09T21:36:28.404Z,93682.88
2022-12-09T21:38:55.697Z,93690.00
2022-12-09T21:41:29.183Z,93690.13
2022-12-09T21:43:56.235Z,93687.16
2022-12-09T21:46:25.771Z,93687.50
2022-12-09T21:48:58.578Z,93680.31
2022-12-09T21:51:29.834Z,93686.34
2022-12-09T21:53:59.152Z,93687.53
2022-12-09T21:56:28.567Z,93682.88
2022-12-09T21:58:57.675Z,93679.97
2022-12-09T22:01:30.113Z,93684.75
2022-12-09T22:03:58.744Z,93689.41
2022-12-09T22:06:26.136Z,93686.78
2022-12-09T22:08:53.063Z,93695.31
2022-12-09T22:11:23.351Z,93695.38
2022-12-09T22:13:51.805Z,93694.47
2022-12-09T22:16:24.494Z,93695.09
2022-12-09T22:18:54.048Z,93693.56
2022-12-09T22:21:25.701Z,93694.44
2022-12-09T22:23:58.521Z,93696.28
2022-12-09T22:26:26.691Z,93702.44
2022-12-09T22:28:54.040Z,93705.66
2022-12-09T22:31:24.247Z,93701.66
2022-12-09T22:33:55.177Z,93706.97
2022-12-09T22:36:22.609Z,93705.03
2022-12-09T22:38:49.920Z,93700.41
2022-12-09T22:41:20.812Z,93707.75
2022-12-09T22:43:49.032Z,93704.38
2022-12-09T22:46:23.175Z,93711.13
2022-12-09T22:48:50.051Z,93709.59
2022-12-09T22:51:20.514Z,93706.13
2022-12-09T22:53:49.354Z,93705.91
2022-12-09T22:56:16.414Z,93705.59
2022-12-09T22:58:43.056Z,93704.22
2022-12-09T23:01:15.976Z,93709.47
2022-12-09T23:03:43.332Z,93710.75
2022-12-09T23:06:12.041Z,93713.47
2022-12-09T23:08:41.546Z,93709.09
2022-12-09T23:11:13.436Z,93711.97
2022-12-09T23:13:41.354Z,93705.00
2022-12-09T23:16:11.844Z,93710.50
2022-12-09T23:18:41.569Z,93706.78
2022-12-09T23:21:11.600Z,93710.16
2022-12-09T23:23:39.026Z,93714.31
2022-12-09T23:26:08.842Z,93719.19
2022-12-09T23:28:44.057Z,93716.09
2022-12-09T23:31:13.380Z,93711.34
2022-12-09T23:33:42.084Z,93708.63
2022-12-09T23:36:11.835Z,93709.47
2022-12-09T23:38:38.615Z,93709.38
2022-12-09T23:41:06.783Z,93703.94
2022-12-09T23:43:37.999Z,93707.69
2022-12-09T23:46:15.334Z,93708.56
2022-12-09T23:48:44.359Z,93710.78
2022-12-09T23:51:17.474Z,93715.50
2022-12-09T23:53:45.800Z,93712.59
2022-12-09T23:56:15.916Z,93709.84
2022-12-09T23:58:43.058Z,93713.16
